createdAt,value
2022-11-21T00:01:01.262Z,95586.59
2022-11-21T00:03:29.734Z,95588.53
2022-11-21T00:05:58.061Z,95593.94
2022-11-21T00:08:26.378Z,95600.00
2022-11-21T00:10:54.707Z,95600.16
2022-11-21T00:13:24.361Z,95588.84
2022-11-21T00:15:52.708Z,95589.66
2022-11-21T00:18:21.072Z,95592.59
2022-11-21T00:20:49.364Z,95584.38
2022-11-21T00:23:17.673Z,95596.19
2022-11-21T00:25:46.001Z,95590.94
2022-11-21T00:28:14.337Z,95595.22
2022-11-21T00:30:44.030Z,95600.66
2022-11-21T00:33:12.562Z,95598.56
2022-11-21T00:35:40.994Z,95594.63
2022-11-21T00:38:09.344Z,95580.75
2022-11-21T00:40:37.697Z,95583.25
2022-11-21T00:43:06.060Z,95582.28
2022-11-21T00:45:34.597Z,95583.91
2022-11-21T00:48:04.558Z,95580.63
2022-11-21T00:50:32.905Z,95572.09
2022-11-21T00:53:01.437Z,95571.41
2022-11-21T00:55:29.719Z,95578.78
2022-11-21T00:57:58.330Z,95586.31
2022-11-21T01:00:26.699Z,95573.66
2022-11-21T01:02:55.014Z,95581.53
2022-11-21T01:05:24.710Z,95577.41
2022-11-21T01:07:53.059Z,95575.75
2022-11-21T01:10:21.476Z,95576.75
2022-11-21T01:12:49.831Z,95572.69
2022-11-21T01:15:18.211Z,95576.34
2022-11-21T01:17:46.508Z,95568.78
2022-11-21T01:20:15.206Z,95568.16
2022-11-21T01:22:45.066Z,95571.44
2022-11-21T01:25:13.478Z,95568.81
2022-11-21T01:27:41.856Z,95581.50
2022-11-21T01:30:11.881Z,95574.28
2022-11-21T01:32:42.260Z,95584.44
2022-11-21T01:35:11.083Z,95588.06
2022-11-21T01:37:39.797Z,95577.41
2022-11-21T01:40:10.991Z,95579.56
2022-11-21T01:42:53.623Z,95570.38
2022-11-21T01:45:55.359Z,95571.22
2022-11-21T01:48:29.648Z,95574.97
2022-11-21T01:51:03.923Z,95581.22
2022-11-21T01:53:32.536Z,95586.78
2022-11-21T01:56:02.692Z,95592.81
2022-11-21T01:58:32.978Z,95584.91
2022-11-21T02:01:01.416Z,95570.63
2022-11-21T02:03:33.969Z,95570.47
2022-11-21T02:06:02.407Z,95568.53
2022-11-21T02:08:31.670Z,95565.91
2022-11-21T02:11:10.538Z,95567.84
2022-11-21T02:13:39.433Z,95572.44
2022-11-21T02:16:08.972Z,95566.38
2022-11-21T02:18:37.324Z,95566.38
2022-11-21T02:21:14.525Z,95569.16
2022-11-21T02:23:50.417Z,95562.59
2022-11-21T02:26:20.194Z,95565.50
2022-11-21T02:28:48.561Z,95550.75
2022-11-21T02:31:16.909Z,95565.66
2022-11-21T02:33:45.282Z,95564.03
2022-11-21T02:36:40.297Z,95559.59
2022-11-21T02:39:11.760Z,95552.53
2022-11-21T02:41:46.946Z,95560.91
2022-11-21T02:44:23.658Z,95542.09
2022-11-21T02:46:53.464Z,95544.91
2022-11-21T02:49:31.565Z,95547.22
2022-11-21T02:51:59.866Z,95547.22
2022-11-21T02:54:28.474Z,95534.56
2022-11-21T02:56:58.613Z,95528.34
2022-11-21T02:59:26.896Z,95529.81
2022-11-21T03:01:57.533Z,95538.22
2022-11-21T03:04:26.114Z,95536.75
2022-11-21T03:06:54.646Z,95529.16
2022-11-21T03:09:23.676Z,95538.03
2022-11-21T03:11:52.018Z,95539.16
2022-11-21T03:14:21.693Z,95534.56
2022-11-21T03:16:50.007Z,95544.53
2022-11-21T03:19:18.340Z,95537.00
2022-11-21T03:21:46.653Z,95526.66
2022-11-21T03:24:16.219Z,95513.69
2022-11-21T03:26:44.913Z,95518.28
2022-11-21T03:29:13.256Z,95509.44
2022-11-21T03:31:43.266Z,95515.34
2022-11-21T03:34:11.921Z,95495.00
2022-11-21T03:36:40.225Z,95494.19
2022-11-21T03:39:09.590Z,95490.06
2022-11-21T03:41:37.908Z,95482.03
2022-11-21T03:44:08.812Z,95477.59
2022-11-21T03:46:38.971Z,95466.28
2022-11-21T03:49:09.566Z,95461.69
2022-11-21T03:51:38.314Z,95459.91
2022-11-21T03:54:07.151Z,95447.94
2022-11-21T03:56:35.809Z,95442.50
2022-11-21T03:59:04.711Z,95437.88
2022-11-21T04:01:36.553Z,95440.19
2022-11-21T04:04:05.897Z,95436.53
2022-11-21T04:06:44.484Z,95431.13
2022-11-21T04:09:12.928Z,95425.38
2022-11-21T04:11:41.261Z,95416.47
2022-11-21T04:14:09.589Z,95420.41
2022-11-21T04:16:37.990Z,95418.56
2022-11-21T04:19:06.301Z,95413.16
2022-11-21T04:21:34.576Z,95405.72
2022-11-21T04:24:04.337Z,95409.50
2022-11-21T04:26:33.015Z,95407.69
2022-11-21T04:29:01.359Z,95410.00
2022-11-21T04:31:30.033Z,95405.72
2022-11-21T04:33:58.332Z,95402.16
2022-11-21T04:36:26.785Z,95408.22
2022-11-21T04:38:55.126Z,95403.78
2022-11-21T04:41:24.807Z,95406.25
2022-11-21T04:43:53.181Z,95389.56
2022-11-21T04:46:21.480Z,95391.31
2022-11-21T04:48:50.112Z,95397.56
2022-11-21T04:51:18.437Z,95391.31
2022-11-21T04:53:46.742Z,95392.31
2022-11-21T04:56:16.647Z,95397.56
2022-11-21T04:58:46.768Z,95390.00
2022-11-21T05:01:15.182Z,95391.66
2022-11-21T05:03:43.765Z,95402.97
2022-11-21T05:06:12.209Z,95406.41
2022-11-21T05:08:40.487Z,95411.78
2022-11-21T05:11:26.389Z,95395.59
2022-11-21T05:13:56.177Z,95404.97
2022-11-21T05:16:24.449Z,95404.38
2022-11-21T05:18:52.810Z,95408.31
2022-11-21T05:21:21.143Z,95409.63
2022-11-21T05:23:49.513Z,95401.44
2022-11-21T05:26:17.849Z,95409.00
2022-11-21T05:28:47.685Z,95405.53
2022-11-21T05:31:17.680Z,95410.63
2022-11-21T05:33:45.985Z,95425.53
2022-11-21T05:36:14.497Z,95437.84
2022-11-21T05:38:43.117Z,95447.97
2022-11-21T05:41:11.449Z,95420.44
2022-11-21T05:43:48.014Z,95396.50
2022-11-21T05:46:19.065Z,95392.38
2022-11-21T05:48:48.277Z,95384.66
2022-11-21T05:51:17.576Z,95379.91
2022-11-21T05:53:46.435Z,95377.81
2022-11-21T05:56:16.629Z,95382.56
2022-11-21T05:58:45.239Z,95386.03
2022-11-21T06:01:15.619Z,95381.09
2022-11-21T06:03:44.343Z,95379.94
2022-11-21T06:06:14.742Z,95363.59
2022-11-21T06:08:44.822Z,95367.38
2022-11-21T06:11:14.982Z,95363.75
2022-11-21T06:13:43.423Z,95363.75
2022-11-21T06:16:13.856Z,95358.00
2022-11-21T06:18:43.712Z,95370.44
2022-11-21T06:21:15.986Z,95372.56
2022-11-21T06:23:44.939Z,95363.38
2022-11-21T06:26:15.534Z,95368.78
2022-11-21T06:28:45.325Z,95354.03
2022-11-21T06:31:15.397Z,95371.25
2022-11-21T06:33:44.705Z,95369.78
2022-11-21T06:36:15.705Z,95367.97
2022-11-21T06:38:44.562Z,95372.25
2022-11-21T06:41:16.011Z,95368.47
2022-11-21T06:43:44.617Z,95384.72
2022-11-21T06:46:13.971Z,95380.94
2022-11-21T06:48:43.762Z,95388.34
2022-11-21T06:51:18.039Z,95398.84
2022-11-21T06:53:47.018Z,95400.78
2022-11-21T06:56:16.608Z,95405.38
2022-11-21T06:58:45.520Z,95419.13
2022-11-21T07:01:13.934Z,95419.91
2022-11-21T07:03:42.562Z,95413.03
2022-11-21T07:06:10.917Z,95427.78
2022-11-21T07:08:41.340Z,95433.22
2022-11-21T07:11:24.538Z,95438.59
2022-11-21T07:13:53.529Z,95442.34
2022-11-21T07:16:22.077Z,95445.16
2022-11-21T07:18:50.450Z,95446.25
2022-11-21T07:21:18.767Z,95453.16
2022-11-21T07:23:48.742Z,95453.47
2022-11-21T07:26:17.073Z,95466.06
2022-11-21T07:28:45.597Z,95452.78
2022-11-21T07:31:14.509Z,95450.44
2022-11-21T07:33:44.333Z,95458.66
2022-11-21T07:36:13.203Z,95458.78
2022-11-21T07:38:42.344Z,95461.41
2022-11-21T07:41:12.203Z,95461.41
2022-11-21T07:43:40.571Z,95477.44
2022-11-21T07:46:08.906Z,95476.97
2022-11-21T07:48:37.434Z,95469.09
2022-11-21T07:51:06.892Z,95468.09
2022-11-21T07:53:35.285Z,95476.97
2022-11-21T07:56:04.928Z,95477.09
2022-11-21T07:58:34.725Z,95486.75
2022-11-21T08:01:06.266Z,95482.34
2022-11-21T08:03:35.509Z,95481.50
2022-11-21T08:06:05.035Z,95478.72
2022-11-21T08:08:33.584Z,95476.09
2022-11-21T08:11:14.785Z,95476.97
2022-11-21T08:13:44.503Z,95479.25
2022-11-21T08:16:12.875Z,95478.09
2022-11-21T08:18:41.207Z,95486.63
2022-11-21T08:21:09.522Z,95489.09
2022-11-21T08:23:37.930Z,95496.19
2022-11-21T08:26:09.555Z,95503.09
2022-11-21T08:28:37.915Z,95494.41
2022-11-21T08:31:07.708Z,95498.38
2022-11-21T08:33:36.142Z,95497.72
2022-11-21T08:36:06.069Z,95496.72
2022-11-21T08:38:34.754Z,95497.03
2022-11-21T08:41:20.639Z,95499.47
2022-11-21T08:43:49.219Z,95512.78
2022-11-21T08:46:18.951Z,95504.59
2022-11-21T08:48:47.340Z,95502.78
2022-11-21T08:51:15.714Z,95510.34
2022-11-21T08:53:44.050Z,95508.09
2022-11-21T08:56:12.394Z,95511.03
2022-11-21T08:58:40.837Z,95504.31
2022-11-21T09:01:09.151Z,95507.91
2022-11-21T09:03:38.919Z,95504.31
2022-11-21T09:06:08.079Z,95509.56
2022-11-21T09:08:36.494Z,95513.38
2022-11-21T09:11:05.790Z,95518.78
2022-11-21T09:13:34.457Z,95507.66
2022-11-21T09:16:20.828Z,95501.16
2022-11-21T09:18:52.936Z,95503.59
2022-11-21T09:21:22.439Z,95517.22
2022-11-21T09:23:50.872Z,95503.81
2022-11-21T09:26:19.367Z,95512.19
2022-11-21T09:28:47.689Z,95502.88
2022-11-21T09:31:15.986Z,95517.97
2022-11-21T09:33:44.378Z,95514.56
2022-11-21T09:36:14.034Z,95510.78
2022-11-21T09:38:42.481Z,95518.34
2022-11-21T09:41:32.463Z,95510.63
2022-11-21T09:44:07.849Z,95508.91
2022-11-21T09:46:45.634Z,95507.25
2022-11-21T09:49:15.893Z,95510.88
2022-11-21T09:51:46.730Z,95514.16
2022-11-21T09:54:20.349Z,95507.75
2022-11-21T09:56:49.702Z,95507.13
2022-11-21T09:59:31.004Z,95492.03
2022-11-21T10:01:59.366Z,95481.22
2022-11-21T10:04:28.852Z,95486.13
2022-11-21T10:07:04.443Z,95475.09
2022-11-21T10:09:48.240Z,95473.25
2022-11-21T10:12:40.273Z,95462.03
2022-11-21T10:15:27.845Z,95453.91
2022-11-21T10:18:15.478Z,95449.63
2022-11-21T10:20:55.734Z,95453.22
2022-11-21T10:23:52.639Z,95451.59
2022-11-21T10:26:30.664Z,95442.53
2022-11-21T10:29:04.546Z,95435.78
2022-11-21T10:31:39.157Z,95437.06
2022-11-21T10:34:12.697Z,95433.94
2022-11-21T10:36:44.406Z,95439.38
2022-11-21T10:39:19.797Z,95437.59
2022-11-21T10:41:52.780Z,95443.31
2022-11-21T10:44:44.642Z,95440.50
2022-11-21T10:47:27.302Z,95432.78
2022-11-21T10:50:02.842Z,95425.84
2022-11-21T10:52:37.350Z,95431.19
2022-11-21T10:55:10.514Z,95416.69
2022-11-21T10:57:45.057Z,95422.50
2022-11-21T11:00:23.644Z,95421.53
2022-11-21T11:03:08.832Z,95416.31
2022-11-21T11:05:38.384Z,95427.50
2022-11-21T11:08:09.379Z,95421.31
2022-11-21T11:10:40.675Z,95421.34
2022-11-21T11:13:49.941Z,95407.25
2022-11-21T11:16:21.387Z,95408.88
2022-11-21T11:18:56.661Z,95399.63
2022-11-21T11:21:26.641Z,95396.88
2022-11-21T11:24:06.709Z,95394.19
2022-11-21T11:26:51.456Z,95387.97
2022-11-21T11:29:21.637Z,95379.25
2022-11-21T11:31:58.095Z,95383.03
2022-11-21T11:34:30.611Z,95370.41
2022-11-21T11:37:12.114Z,95366.97
2022-11-21T11:39:48.108Z,95347.88
2022-11-21T11:43:09.823Z,95356.75
2022-11-21T11:46:11.469Z,95360.09
2022-11-21T11:48:56.545Z,95363.06
2022-11-21T11:51:34.594Z,95354.88
2022-11-21T11:54:09.856Z,95348.97
2022-11-21T11:56:39.058Z,95352.28
2022-11-21T11:59:17.521Z,95347.22
2022-11-21T12:01:52.608Z,95346.09
2022-11-21T12:04:22.903Z,95344.97
2022-11-21T12:09:53.274Z,95332.06
2022-11-21T12:12:33.050Z,95338.31
2022-11-21T12:15:30.939Z,95322.53
2022-11-21T12:18:12.948Z,95325.50
2022-11-21T12:20:53.296Z,95328.47
2022-11-21T12:23:23.943Z,95328.16
2022-11-21T12:26:06.129Z,95336.72
2022-11-21T12:28:44.771Z,95338.41
2022-11-21T12:31:20.925Z,95336.97
2022-11-21T12:34:04.057Z,95332.56
2022-11-21T12:36:42.119Z,95336.03
2022-11-21T12:39:28.039Z,95331.91
2022-11-21T12:42:25.386Z,95317.94
2022-11-21T12:45:06.659Z,95307.78
2022-11-21T12:48:14.413Z,95307.25
2022-11-21T12:51:11.333Z,95288.69
2022-11-21T12:54:04.806Z,95281.28
2022-11-21T12:56:45.125Z,95278.97
2022-11-21T12:59:16.314Z,95265.47
2022-11-21T13:01:55.152Z,95258.88
2022-11-21T13:04:29.330Z,95262.00
2022-11-21T13:06:59.655Z,95251.31
2022-11-21T13:09:31.604Z,95254.41
2022-11-21T13:12:06.557Z,95246.00
2022-11-21T13:14:43.386Z,95236.44
2022-11-21T13:17:30.327Z,95236.72
2022-11-21T13:20:03.365Z,95239.34
2022-11-21T13:22:52.362Z,95235.91
2022-11-21T13:25:47.377Z,95226.41
2022-11-21T13:28:34.710Z,95221.47
2022-11-21T13:31:24.514Z,95217.50
2022-11-21T13:33:53.482Z,95210.25
2022-11-21T13:36:44.159Z,95206.50
2022-11-21T13:39:34.802Z,95201.97
2022-11-21T13:42:31.373Z,95191.59
2022-11-21T13:45:00.833Z,95191.59
2022-11-21T13:48:05.109Z,95191.97
2022-11-21T13:51:04.918Z,95178.19
2022-11-21T13:53:58.432Z,95170.47
2022-11-21T13:56:36.362Z,95174.91
2022-11-21T13:59:26.333Z,95162.56
2022-11-21T14:02:20.910Z,95172.75
2022-11-21T14:05:04.727Z,95164.03
2022-11-21T14:07:35.079Z,95158.88
2022-11-21T14:10:18.679Z,95151.47
2022-11-21T14:12:50.798Z,95146.75
2022-11-21T14:15:25.984Z,95146.41
2022-11-21T14:17:57.642Z,95131.53
2022-11-21T14:20:28.426Z,95133.16
2022-11-21T14:23:00.087Z,95114.78
2022-11-21T14:25:38.296Z,95116.28
2022-11-21T14:28:11.263Z,95105.56
2022-11-21T14:30:41.586Z,95104.38
2022-11-21T14:33:30.465Z,95102.41
2022-11-21T14:36:03.448Z,95095.72
2022-11-21T14:38:36.533Z,95098.34
2022-11-21T14:41:28.345Z,95102.66
2022-11-21T14:44:17.651Z,95100.38
2022-11-21T14:46:47.469Z,95089.47
2022-11-21T14:49:29.214Z,95087.31
2022-11-21T14:52:07.350Z,95088.72
2022-11-21T14:54:54.925Z,95093.63
2022-11-21T14:57:37.682Z,95080.09
2022-11-21T15:00:07.635Z,95073.09
2022-11-21T15:02:36.239Z,95071.34
2022-11-21T15:05:07.757Z,95072.78
2022-11-21T15:07:41.355Z,95076.81
2022-11-21T15:10:30.053Z,95072.31
2022-11-21T15:13:04.272Z,95072.63
2022-11-21T15:15:35.800Z,95063.69
2022-11-21T15:20:59.006Z,95039.66
2022-11-21T15:23:29.745Z,95033.28
2022-11-21T15:26:01.335Z,95033.19
2022-11-21T15:28:32.338Z,95029.72
2022-11-21T15:31:19.811Z,95020.94
2022-11-21T15:37:04.962Z,95012.78
2022-11-21T15:39:34.501Z,95005.41
2022-11-21T15:42:36.964Z,94995.44
2022-11-21T15:45:23.962Z,94988.91
2022-11-21T15:47:52.319Z,94983.34
2022-11-21T15:50:24.555Z,94975.00
2022-11-21T15:52:53.781Z,94973.91
2022-11-21T15:55:25.092Z,94970.97
2022-11-21T15:57:53.609Z,94967.22
2022-11-21T16:00:23.501Z,94960.84
2022-11-21T16:02:51.863Z,94962.16
2022-11-21T16:05:20.178Z,94952.19
2022-11-21T16:07:48.949Z,94949.91
2022-11-21T16:10:25.899Z,94952.69
2022-11-21T16:12:55.861Z,94946.16
2022-11-21T16:15:25.748Z,94937.16
2022-11-21T16:17:54.121Z,94932.28
2022-11-21T16:20:23.039Z,94924.09
2022-11-21T16:22:51.443Z,94916.75
2022-11-21T16:25:19.862Z,94929.19
2022-11-21T16:27:48.430Z,94933.59
2022-11-21T16:30:16.914Z,94922.63
2022-11-21T16:32:47.144Z,94921.34
2022-11-21T16:35:15.581Z,94912.84
2022-11-21T16:37:43.974Z,94914.47
2022-11-21T16:40:12.953Z,94909.25
2022-11-21T16:42:41.283Z,94908.59
2022-11-21T16:45:10.356Z,94909.56
2022-11-21T16:47:45.850Z,94889.59
2022-11-21T16:50:18.821Z,94886.16
2022-11-21T16:52:47.409Z,94883.72
2022-11-21T16:55:15.930Z,94878.47
2022-11-21T16:57:44.291Z,94862.91
2022-11-21T17:00:13.636Z,94875.03
2022-11-21T17:02:42.354Z,94861.13
2022-11-21T17:05:11.333Z,94864.22
2022-11-21T17:07:41.131Z,94859.31
2022-11-21T17:10:10.505Z,94861.91
2022-11-21T17:12:39.660Z,94859.13
2022-11-21T17:15:11.145Z,94848.81
2022-11-21T17:17:40.586Z,94852.09
2022-11-21T17:20:10.685Z,94860.78
2022-11-21T17:22:40.353Z,94845.06
2022-11-21T17:25:09.597Z,94834.75
2022-11-21T17:27:38.164Z,94827.69
2022-11-21T17:30:07.785Z,94829.50
2022-11-21T17:32:36.626Z,94819.03
2022-11-21T17:35:05.652Z,94808.19
2022-11-21T17:37:34.021Z,94805.75
2022-11-21T17:40:03.929Z,94818.03
2022-11-21T17:42:32.466Z,94805.56
2022-11-21T17:45:00.875Z,94800.34
2022-11-21T17:47:53.785Z,94783.63
2022-11-21T17:50:31.033Z,94780.84
2022-11-21T17:52:59.429Z,94779.22
2022-11-21T17:55:29.492Z,94786.25
2022-11-21T17:57:57.827Z,94778.22
2022-11-21T18:00:26.465Z,94764.13
2022-11-21T18:02:57.265Z,94757.75
2022-11-21T18:05:25.744Z,94761.97
2022-11-21T18:07:54.202Z,94759.19
2022-11-21T18:10:42.269Z,94756.25
2022-11-21T18:13:12.223Z,94751.16
2022-11-21T18:15:40.613Z,94744.94
2022-11-21T18:18:09.045Z,94737.91
2022-11-21T18:20:37.377Z,94736.09
2022-11-21T18:23:05.755Z,94728.41
2022-11-21T18:25:36.252Z,94731.19
2022-11-21T18:28:05.225Z,94735.63
2022-11-21T18:30:34.976Z,94732.00
2022-11-21T18:33:03.900Z,94724.78
2022-11-21T18:35:32.510Z,94717.91
2022-11-21T18:38:01.109Z,94712.84
2022-11-21T18:40:29.593Z,94714.66
2022-11-21T18:42:57.935Z,94717.09
2022-11-21T18:45:26.370Z,94709.25
2022-11-21T18:47:56.438Z,94716.28
2022-11-21T18:50:24.777Z,94706.78
2022-11-21T18:52:53.528Z,94701.72
2022-11-21T18:55:23.042Z,94699.25
2022-11-21T18:57:51.421Z,94701.88
2022-11-21T19:00:20.034Z,94682.09
2022-11-21T19:02:48.400Z,94687.50
2022-11-21T19:05:20.707Z,94667.72
2022-11-21T19:07:49.341Z,94673.94
2022-11-21T19:10:42.149Z,94665.63
2022-11-21T19:13:07.010Z,94654.69
2022-11-21T19:15:38.291Z,94649.94
2022-11-21T19:18:06.935Z,94642.09
2022-11-21T19:20:37.118Z,94636.22
2022-11-21T19:23:05.593Z,94634.88
2022-11-21T19:25:35.716Z,94630.47
2022-11-21T19:28:04.135Z,94634.06
2022-11-21T19:30:32.483Z,94620.50
2022-11-21T19:33:00.878Z,94614.63
2022-11-21T19:35:29.227Z,94614.97
2022-11-21T19:37:59.164Z,94614.50
2022-11-21T19:40:47.638Z,94604.84
2022-11-21T19:43:16.502Z,94600.94
2022-11-21T19:45:45.175Z,94595.72
2022-11-21T19:48:13.556Z,94589.66
2022-11-21T19:50:47.736Z,94581.59
2022-11-21T19:53:19.750Z,94578.34
2022-11-21T19:55:48.119Z,94569.84
2022-11-21T19:58:16.493Z,94562.53
2022-11-21T20:00:46.621Z,94551.94
2022-11-21T20:03:14.967Z,94544.44
2022-11-21T20:05:43.294Z,94534.13
2022-11-21T20:08:17.481Z,94526.75
2022-11-21T20:10:47.838Z,94513.50
2022-11-21T20:13:16.181Z,94517.56
2022-11-21T20:15:44.630Z,94524.25
2022-11-21T20:18:13.562Z,94517.22
2022-11-21T20:20:41.931Z,94516.91
2022-11-21T20:23:10.345Z,94517.47
2022-11-21T20:25:38.950Z,94511.75
2022-11-21T20:28:11.759Z,94508.13
2022-11-21T20:30:40.285Z,94500.28
2022-11-21T20:33:11.473Z,94501.91
2022-11-21T20:35:42.094Z,94495.22
2022-11-21T20:38:10.445Z,94492.97
2022-11-21T20:40:39.012Z,94493.84
2022-11-21T20:43:08.941Z,94490.91
2022-11-21T20:48:27.165Z,94480.91
2022-11-21T20:53:58.598Z,94489.75
2022-11-21T20:56:32.665Z,94491.38
2022-11-21T20:59:02.780Z,94486.19
2022-11-21T21:01:32.052Z,94488.22
2022-11-21T21:04:00.392Z,94486.13
2022-11-21T21:06:28.812Z,94497.31
2022-11-21T21:08:57.194Z,94489.63
2022-11-21T21:11:50.339Z,94486.22
2022-11-21T21:14:15.713Z,94468.03
2022-11-21T21:16:44.554Z,94477.69
2022-11-21T21:19:12.952Z,94482.28
2022-11-21T21:21:41.799Z,94487.03
2022-11-21T21:24:12.499Z,94477.41
2022-11-21T21:26:43.551Z,94484.94
2022-11-21T21:29:13.372Z,94492.09
2022-11-21T21:31:50.083Z,94489.94
2022-11-21T21:34:20.195Z,94506.28
2022-11-21T21:36:48.952Z,94504.47
2022-11-21T21:39:17.332Z,94503.03
2022-11-21T21:41:46.660Z,94477.84
2022-11-21T21:44:16.697Z,94480.78
2022-11-21T21:46:46.810Z,94461.94
2022-11-21T21:49:15.722Z,94474.31
2022-11-21T21:51:44.080Z,94484.75
2022-11-21T21:54:18.507Z,94488.50
2022-11-21T21:56:47.022Z,94480.28
2022-11-21T21:59:17.977Z,94477.50
2022-11-21T22:01:47.899Z,94479.31
2022-11-21T22:04:16.272Z,94479.47
2022-11-21T22:06:44.830Z,94478.28
2022-11-21T22:09:13.257Z,94476.47
2022-11-21T22:11:41.608Z,94467.66
2022-11-21T22:14:14.151Z,94456.22
2022-11-21T22:16:43.360Z,94471.38
2022-11-21T22:19:13.335Z,94465.81
2022-11-21T22:21:41.740Z,94459.59
2022-11-21T22:24:30.002Z,94456.16
2022-11-21T22:26:58.476Z,94453.72
2022-11-21T22:29:26.800Z,94457.31
2022-11-21T22:31:55.253Z,94455.22
2022-11-21T22:34:25.133Z,94450.78
2022-11-21T22:36:53.522Z,94456.22
2022-11-21T22:39:21.923Z,94442.31
2022-11-21T22:41:50.304Z,94442.47
2022-11-21T22:44:19.290Z,94443.47
2022-11-21T22:46:47.712Z,94439.22
2022-11-21T22:49:16.025Z,94453.13
2022-11-21T22:51:45.959Z,94451.50
2022-11-21T22:54:14.424Z,94453.47
2022-11-21T22:56:43.004Z,94453.00
2022-11-21T22:59:13.418Z,94463.41
2022-11-21T23:01:41.855Z,94453.69
2022-11-21T23:04:14.506Z,94443.28
2022-11-21T23:06:46.006Z,94447.69
2022-11-21T23:09:14.540Z,94447.06
2022-11-21T23:11:42.858Z,94446.09
2022-11-21T23:14:11.203Z,94444.66
2022-11-21T23:16:39.497Z,94441.78
2022-11-21T23:19:08.037Z,94442.25
2022-11-21T23:21:36.698Z,94433.44
2022-11-21T23:24:07.370Z,94429.50
2022-11-21T23:26:35.766Z,94427.00
2022-11-21T23:29:08.614Z,94415.22
2022-11-21T23:31:37.382Z,94421.66
2022-11-21T23:34:05.935Z,94413.59
2022-11-21T23:36:34.311Z,94413.72
2022-11-21T23:39:02.743Z,94414.81
2022-11-21T23:41:32.464Z,94425.94
2022-11-21T23:44:02.450Z,94407.44
2022-11-21T23:46:31.414Z,94396.16
2022-11-21T23:48:59.924Z,94403.38
2022-11-21T23:51:28.279Z,94401.56
2022-11-21T23:53:56.627Z,94400.75
2022-11-21T23:56:24.904Z,94409.56
2022-11-21T23:58:54.602Z,94392.44
